Time;durP1;ratioP1;P1;durP2;ratioP2;P2;SDS_P1;SDS_P2;PMS_P1;PMS_P2;Temp;Humidity;BMP_temperature;BMP_pressure;BME280_temperature;BME280_humidity;BME280_pressure;Samples;Min_cycle;Max_cycle;Signal;HPM_P1;HPM_P2
2022/10/13 00:00:27;;;;;;;11.63;8.20;;;11.40;99.90;;;;;;5056839;28;20456;-86
2022/10/13 00:02:54;;;;;;;15.27;9.40;;;11.40;99.90;;;;;;5057533;28;20445;-86
2022/10/13 00:05:21;;;;;;;10.07;7.57;;;11.40;99.90;;;;;;5061246;28;20448;-87
2022/10/13 00:07:48;;;;;;;10.90;7.00;;;11.50;99.90;;;;;;5054624;28;20488;-86
2022/10/13 00:10:15;;;;;;;8.90;7.67;;;11.50;99.90;;;;;;5054638;28;20872;-86
2022/10/13 00:12:41;;;;;;;10.53;7.87;;;11.50;99.90;;;;;;5053537;28;20444;-86
2022/10/13 00:15:10;;;;;;;12.13;8.17;;;11.50;99.90;;;;;;5053460;28;20452;-87
2022/10/13 00:17:37;;;;;;;9.73;7.80;;;11.50;99.90;;;;;;5053366;28;20455;-87
2022/10/13 00:20:05;;;;;;;19.17;8.50;;;11.50;99.90;;;;;;5053673;28;20466;-87
2022/10/13 00:22:32;;;;;;;10.77;8.63;;;11.60;99.90;;;;;;5054229;28;20452;-87
2022/10/13 00:24:59;;;;;;;13.33;7.53;;;11.60;99.90;;;;;;5056676;28;20464;-86
2022/10/13 00:27:26;;;;;;;11.57;7.13;;;11.60;99.90;;;;;;5057333;28;20451;-86
2022/10/13 00:29:53;;;;;;;10.17;7.33;;;11.60;99.90;;;;;;5057753;28;20484;-85
2022/10/13 00:32:21;;;;;;;14.20;9.30;;;11.60;99.90;;;;;;5058010;28;20540;-84
2022/10/13 00:34:48;;;;;;;15.50;8.50;;;11.60;99.90;;;;;;5058544;28;20449;-85
2022/10/13 00:37:14;;;;;;;11.57;7.97;;;11.60;99.90;;;;;;5059195;28;20454;-85
2022/10/13 00:39:41;;;;;;;11.97;8.20;;;11.60;99.90;;;;;;5057631;28;20508;-86
2022/10/13 00:42:12;;;;;;;11.93;8.03;;;11.70;99.90;;;;;;5054635;28;20455;-86
2022/10/13 00:44:59;;;;;;;17.40;9.63;;;11.70;99.90;;;;;;5054240;28;20478;-87
2022/10/13 00:47:30;;;;;;;12.73;7.80;;;11.70;99.90;;;;;;5054112;28;20457;-87
2022/10/13 00:49:58;;;;;;;11.90;8.10;;;11.70;99.90;;;;;;5054211;28;20496;-87
2022/10/13 00:52:26;;;;;;;15.67;8.23;;;11.70;99.90;;;;;;5054149;28;20455;-87
2022/10/13 00:54:54;;;;;;;11.70;8.17;;;11.70;99.90;;;;;;5054121;28;20463;-85
2022/10/13 00:57:22;;;;;;;10.90;7.90;;;11.70;99.90;;;;;;5054823;28;20445;-87
2022/10/13 00:59:49;;;;;;;10.37;7.67;;;11.60;99.90;;;;;;5054287;28;20478;-87
2022/10/13 01:02:16;;;;;;;10.40;7.57;;;11.60;99.90;;;;;;5053570;28;20839;-86
2022/10/13 01:04:47;;;;;;;8.10;6.97;;;11.60;99.90;;;;;;5053958;28;20841;-85
2022/10/13 01:07:16;;;;;;;12.10;8.37;;;11.60;99.90;;;;;;5059833;28;20459;-86
2022/10/13 01:09:44;;;;;;;13.00;7.40;;;11.60;99.90;;;;;;5059354;28;20491;-85
2022/10/13 01:12:26;;;;;;;12.10;8.23;;;11.60;99.90;;;;;;5060632;28;20486;-85
2022/10/13 01:15:01;;;;;;;10.83;7.13;;;11.60;99.90;;;;;;5060348;28;20474;-84
2022/10/13 01:17:34;;;;;;;10.10;6.80;;;11.50;99.90;;;;;;5060335;28;20443;-84
2022/10/13 01:20:29;;;;;;;9.87;7.50;;;11.50;99.90;;;;;;5059700;28;20457;-85
2022/10/13 01:23:14;;;;;;;10.73;7.50;;;11.50;99.90;;;;;;5061272;28;20976;-86
2022/10/13 01:26:05;;;;;;;10.60;6.93;;;11.50;99.90;;;;;;5058017;28;20463;-86
2022/10/13 01:28:53;;;;;;;9.87;7.47;;;11.40;99.90;;;;;;5050785;28;20498;-85
2022/10/13 01:31:27;;;;;;;15.63;7.63;;;11.40;99.90;;;;;;5060872;28;20469;-84
2022/10/13 01:34:02;;;;;;;10.40;8.13;;;11.50;99.90;;;;;;5055832;28;20462;-85
2022/10/13 01:36:36;;;;;;;11.87;7.77;;;11.50;99.90;;;;;;5053333;28;20452;-85
2022/10/13 01:39:07;;;;;;;8.70;7.23;;;11.50;99.90;;;;;;5054349;28;20831;-86
2022/10/13 01:41:38;;;;;;;13.70;7.97;;;11.50;99.90;;;;;;5054068;28;20458;-86
2022/10/13 01:44:11;;;;;;;12.30;8.20;;;11.50;99.90;;;;;;5062694;28;20448;-84
2022/10/13 01:46:40;;;;;;;11.57;7.10;;;11.50;99.90;;;;;;5064406;28;20458;-87
2022/10/13 01:49:12;;;;;;;8.73;6.90;;;11.50;99.90;;;;;;5059716;28;20516;-86
2022/10/13 01:51:39;;;;;;;8.60;6.90;;;11.50;99.90;;;;;;5053324;28;20452;-86
2022/10/13 01:54:06;;;;;;;8.23;6.20;;;11.60;99.90;;;;;;5052905;28;20436;-85
2022/10/13 01:56:33;;;;;;;11.33;6.83;;;11.60;99.90;;;;;;5052607;28;20452;-86
2022/10/13 01:59:04;;;;;;;8.97;6.83;;;11.60;99.90;;;;;;5058361;28;20974;-86
2022/10/13 02:01:41;;;;;;;10.70;7.27;;;11.60;99.90;;;;;;5062777;28;20461;-86
2022/10/13 02:04:20;;;;;;;10.83;7.50;;;11.60;99.90;;;;;;5052383;28;20514;-87
2022/10/13 02:06:57;;;;;;;9.13;7.20;;;11.60;99.90;;;;;;5052547;28;20464;-87
2022/10/13 02:09:28;;;;;;;9.70;6.93;;;11.60;99.90;;;;;;5050939;28;20495;-86
2022/10/13 02:11:59;;;;;;;11.87;7.27;;;11.60;99.90;;;;;;5053003;28;20445;-85
2022/10/13 02:14:29;;;;;;;8.80;6.77;;;11.60;99.90;;;;;;5052359;28;20815;-86
2022/10/13 02:17:02;;;;;;;10.80;7.23;;;11.60;99.90;;;;;;5052529;28;20449;-86
2022/10/13 02:19:29;;;;;;;9.63;7.17;;;11.60;99.90;;;;;;5052760;28;20499;-84
2022/10/13 02:21:57;;;;;;;8.60;6.80;;;11.60;99.90;;;;;;5057009;28;20944;-86
2022/10/13 02:24:24;;;;;;;13.53;7.60;;;11.70;99.90;;;;;;5055060;28;20961;-85
2022/10/13 02:26:52;;;;;;;12.80;8.37;;;11.60;99.90;;;;;;5052355;28;20815;-87
2022/10/13 02:29:19;;;;;;;11.00;6.50;;;11.60;99.90;;;;;;5050974;28;20479;-87
2022/10/13 02:31:47;;;;;;;9.23;6.17;;;11.70;99.90;;;;;;5052059;28;20835;-87
2022/10/13 02:34:15;;;;;;;9.50;6.87;;;11.70;99.90;;;;;;5075325;22;20495;-78
2022/10/13 02:36:42;;;;;;;9.43;7.03;;;11.70;99.90;;;;;;5056781;28;20846;-80
2022/10/13 02:39:10;;;;;;;11.67;7.07;;;11.70;99.90;;;;;;5063162;28;20538;-80
2022/10/13 02:41:37;;;;;;;10.53;6.80;;;11.70;99.90;;;;;;5058957;28;20481;-80
2022/10/13 02:44:05;;;;;;;11.37;7.17;;;11.70;99.90;;;;;;5046515;28;20536;-79
2022/10/13 02:46:31;;;;;;;12.37;7.10;;;11.70;99.90;;;;;;5064530;28;20463;-80
2022/10/13 02:48:58;;;;;;;10.10;6.80;;;11.80;99.90;;;;;;5063342;28;20582;-80
2022/10/13 02:51:26;;;;;;;8.83;6.97;;;11.80;99.90;;;;;;5063306;28;20463;-80
2022/10/13 02:53:53;;;;;;;13.97;7.50;;;11.90;99.90;;;;;;5063233;28;20524;-80
2022/10/13 02:56:20;;;;;;;11.40;7.30;;;11.90;99.90;;;;;;5044412;28;20463;-80
2022/10/13 02:58:47;;;;;;;14.00;7.30;;;11.90;99.90;;;;;;5063451;28;20463;-80
2022/10/13 03:01:15;;;;;;;16.00;7.77;;;11.90;99.90;;;;;;5064360;28;20456;-80
2022/10/13 03:03:42;;;;;;;10.23;7.00;;;11.90;99.90;;;;;;5065000;28;20458;-79
2022/10/13 03:06:09;;;;;;;12.10;7.87;;;11.90;99.90;;;;;;5064307;28;20513;-79
2022/10/13 03:08:37;;;;;;;11.50;7.90;;;11.90;99.90;;;;;;5063952;28;20436;-80
2022/10/13 03:11:04;;;;;;;20.60;7.57;;;11.90;99.90;;;;;;5063402;28;20808;-79
2022/10/13 03:13:30;;;;;;;14.20;8.17;;;12.00;99.90;;;;;;5061711;28;20961;-79
2022/10/13 03:15:57;;;;;;;10.73;7.57;;;12.00;99.90;;;;;;5063291;28;20472;-79
2022/10/13 03:18:24;;;;;;;8.63;6.90;;;12.00;99.90;;;;;;5063384;28;20530;-80
2022/10/13 03:20:58;;;;;;;13.50;7.70;;;12.00;99.90;;;;;;5063106;28;20460;-79
2022/10/13 03:23:25;;;;;;;11.60;7.60;;;12.00;99.90;;;;;;5063503;28;20487;-80
2022/10/13 03:25:53;;;;;;;12.00;7.10;;;12.00;99.90;;;;;;5063145;28;20488;-80
2022/10/13 03:28:20;;;;;;;11.60;6.93;;;12.00;99.90;;;;;;5062454;28;20449;-79
2022/10/13 03:30:47;;;;;;;10.67;7.93;;;12.10;99.90;;;;;;5060935;28;20854;-79
2022/10/13 03:33:14;;;;;;;9.10;7.53;;;12.10;99.90;;;;;;5058628;28;20461;-79
2022/10/13 03:35:41;;;;;;;10.93;8.17;;;12.10;99.90;;;;;;5058304;28;20480;-79
2022/10/13 03:38:09;;;;;;;10.40;6.23;;;12.10;99.90;;;;;;5058665;28;20542;-79
2022/10/13 03:40:36;;;;;;;11.20;7.87;;;12.10;99.90;;;;;;5060836;28;20455;-79
2022/10/13 03:43:04;;;;;;;11.17;7.77;;;12.00;99.90;;;;;;5060354;28;20459;-79
2022/10/13 03:45:31;;;;;;;12.13;7.33;;;12.00;99.90;;;;;;5059170;28;20540;-78
2022/10/13 03:47:58;;;;;;;11.17;7.27;;;12.00;99.90;;;;;;5060884;28;20454;-80
2022/10/13 03:50:25;;;;;;;17.77;8.67;;;12.10;99.90;;;;;;5063321;28;20489;-78
2022/10/13 03:52:51;;;;;;;12.63;7.03;;;12.10;99.90;;;;;;5062737;28;20456;-78
2022/10/13 03:55:18;;;;;;;12.40;7.70;;;12.10;99.90;;;;;;5062651;28;20560;-78
2022/10/13 03:57:45;;;;;;;10.50;7.47;;;12.10;99.90;;;;;;5061921;28;20456;-78
2022/10/13 04:00:15;;;;;;;9.07;6.33;;;12.10;99.90;;;;;;5061557;28;20454;-79
2022/10/13 04:02:42;;;;;;;10.83;7.53;;;12.00;99.90;;;;;;5062924;28;20458;-78
2022/10/13 04:05:09;;;;;;;12.23;7.00;;;12.00;99.90;;;;;;5062494;28;20553;-80
2022/10/13 04:07:36;;;;;;;15.20;7.93;;;12.00;99.90;;;;;;5066411;28;20460;-78
2022/10/13 04:10:03;;;;;;;9.57;6.97;;;12.00;99.90;;;;;;5064875;28;20484;-79
2022/10/13 04:12:32;;;;;;;13.97;7.20;;;12.00;99.90;;;;;;5067302;28;20460;-78
2022/10/13 04:14:59;;;;;;;12.40;8.23;;;12.00;99.90;;;;;;5066308;28;20481;-80
2022/10/13 04:17:27;;;;;;;10.37;6.97;;;12.00;99.90;;;;;;5066320;28;20463;-80
2022/10/13 04:19:54;;;;;;;11.90;7.40;;;12.00;99.90;;;;;;5065932;28;20911;-79
2022/10/13 04:22:20;;;;;;;8.00;6.83;;;12.00;99.90;;;;;;5066942;28;20848;-79
2022/10/13 04:24:47;;;;;;;9.77;6.40;;;12.00;99.90;;;;;;5067070;28;20539;-79
2022/10/13 04:27:15;;;;;;;9.27;7.00;;;12.00;99.90;;;;;;5066731;28;20472;-78
2022/10/13 04:29:42;;;;;;;8.33;7.03;;;12.00;99.90;;;;;;5065925;28;20481;-80
2022/10/13 04:32:09;;;;;;;7.57;6.10;;;12.00;99.90;;;;;;5066910;28;20514;-79
2022/10/13 04:34:37;;;;;;;13.80;7.70;;;12.00;99.90;;;;;;5057732;28;20853;-78
2022/10/13 04:37:04;;;;;;;10.03;6.70;;;12.00;99.90;;;;;;5065038;28;20457;-79
2022/10/13 04:39:31;;;;;;;11.90;6.80;;;12.00;99.90;;;;;;5064517;28;20499;-79
2022/10/13 04:41:57;;;;;;;10.10;6.50;;;12.00;99.90;;;;;;5066361;28;20462;-80
2022/10/13 04:44:24;;;;;;;10.47;6.77;;;12.10;99.90;;;;;;5066673;28;21094;-79
2022/10/13 04:46:51;;;;;;;8.07;6.23;;;12.10;99.90;;;;;;5067071;28;20470;-79
2022/10/13 04:49:18;;;;;;;11.57;7.63;;;12.10;99.90;;;;;;5065236;28;20475;-79
2022/10/13 04:51:46;;;;;;;11.53;7.47;;;12.10;99.90;;;;;;5066438;28;20444;-80
2022/10/13 04:54:13;;;;;;;9.77;6.67;;;12.10;99.90;;;;;;5065329;28;20481;-79
2022/10/13 04:56:40;;;;;;;11.00;6.40;;;12.10;99.90;;;;;;5057418;28;20457;-79
2022/10/13 04:59:07;;;;;;;13.27;7.70;;;12.10;99.90;;;;;;5046092;28;20977;-79
2022/10/13 05:01:34;;;;;;;12.07;7.23;;;12.10;99.90;;;;;;5046332;28;20477;-79
2022/10/13 05:04:03;;;;;;;8.63;6.20;;;12.10;99.90;;;;;;5048352;28;20477;-79
2022/10/13 05:06:32;;;;;;;8.67;6.17;;;12.10;99.90;;;;;;5067380;28;20825;-79
2022/10/13 05:09:01;;;;;;;9.57;7.47;;;12.10;99.90;;;;;;5065280;28;20455;-80
2022/10/13 05:11:29;;;;;;;12.43;6.87;;;12.20;99.90;;;;;;5065600;28;20450;-79
2022/10/13 05:13:57;;;;;;;8.80;6.30;;;12.20;99.90;;;;;;5060252;28;20452;-82
2022/10/13 05:16:25;;;;;;;10.50;6.93;;;12.20;99.90;;;;;;5061315;28;20841;-78
2022/10/13 05:18:54;;;;;;;12.33;7.00;;;12.10;99.90;;;;;;5060551;28;20460;-80
2022/10/13 05:21:22;;;;;;;10.77;7.57;;;12.20;99.90;;;;;;5060143;28;20451;-83
2022/10/13 05:23:52;;;;;;;12.37;6.73;;;12.20;99.90;;;;;;5064234;28;20948;-81
2022/10/13 05:26:21;;;;;;;9.33;6.60;;;12.20;99.90;;;;;;5061408;28;20490;-79
2022/10/13 05:28:48;;;;;;;11.87;7.27;;;12.20;99.90;;;;;;5055624;28;20455;-81
2022/10/13 05:31:18;;;;;;;11.50;7.63;;;12.10;99.90;;;;;;5062469;28;20506;-81
2022/10/13 05:33:46;;;;;;;11.03;6.80;;;12.20;99.90;;;;;;5061254;28;20450;-83
2022/10/13 05:36:15;;;;;;;10.80;6.93;;;12.20;99.90;;;;;;5062916;28;20472;-82
2022/10/13 05:38:43;;;;;;;10.20;7.07;;;12.20;99.90;;;;;;5058582;28;20461;-80
2022/10/13 05:41:11;;;;;;;8.50;6.97;;;12.20;99.90;;;;;;5066486;28;20536;-81
2022/10/13 05:43:41;;;;;;;11.23;7.37;;;12.20;99.90;;;;;;5066058;28;20467;-80
2022/10/13 05:46:08;;;;;;;10.97;7.87;;;12.20;99.90;;;;;;5066676;28;20505;-80
2022/10/13 05:48:35;;;;;;;14.07;8.23;;;12.20;99.90;;;;;;5065619;28;20893;-81
2022/10/13 05:51:06;;;;;;;12.30;7.70;;;12.20;99.90;;;;;;5058200;28;20481;-80
2022/10/13 05:53:36;;;;;;;10.47;6.80;;;12.10;99.90;;;;;;5053585;28;20453;-79
2022/10/13 05:56:07;;;;;;;8.00;6.30;;;12.20;99.90;;;;;;5056505;28;20467;-79
2022/10/13 05:58:37;;;;;;;11.33;6.70;;;12.20;99.90;;;;;;5056643;28;20543;-80
2022/10/13 06:01:08;;;;;;;14.90;6.87;;;12.20;99.90;;;;;;5058394;28;20456;-79
2022/10/13 06:03:35;;;;;;;12.63;7.13;;;12.20;99.90;;;;;;5057669;28;20460;-79
2022/10/13 06:06:02;;;;;;;8.97;6.80;;;12.20;99.90;;;;;;5056699;28;20460;-80
2022/10/13 06:08:30;;;;;;;15.10;8.47;;;12.30;99.90;;;;;;5057598;28;20484;-79
2022/10/13 06:10:57;;;;;;;11.60;7.43;;;12.20;99.90;;;;;;5057169;28;20510;-79
2022/10/13 06:13:23;;;;;;;11.67;7.60;;;12.20;99.90;;;;;;5056939;28;20466;-80
2022/10/13 06:15:50;;;;;;;11.23;7.57;;;12.30;99.90;;;;;;5056485;28;20472;-80
2022/10/13 06:18:18;;;;;;;16.10;7.60;;;12.30;99.90;;;;;;5057318;28;20536;-78
2022/10/13 06:20:45;;;;;;;10.93;6.30;;;12.30;99.90;;;;;;5056811;28;20463;-79
2022/10/13 06:23:12;;;;;;;9.20;7.60;;;12.30;99.90;;;;;;5058177;28;20454;-80
2022/10/13 06:25:46;;;;;;;9.90;7.70;;;12.40;99.90;;;;;;5058648;28;20480;-80
2022/10/13 06:28:13;;;;;;;9.37;6.10;;;12.40;99.90;;;;;;5077039;28;20944;-80
2022/10/13 06:30:41;;;;;;;11.67;7.10;;;12.40;99.90;;;;;;5061783;28;20493;-78
2022/10/13 06:33:08;;;;;;;7.30;6.10;;;12.40;99.90;;;;;;5056566;28;20527;-81
2022/10/13 06:35:37;;;;;;;8.47;5.73;;;12.40;99.90;;;;;;5056538;28;20486;-80
2022/10/13 06:38:03;;;;;;;8.67;6.57;;;12.50;99.90;;;;;;5057078;28;20960;-80
2022/10/13 06:40:30;;;;;;;10.10;6.20;;;12.40;99.90;;;;;;5057434;28;20520;-80
2022/10/13 06:42:57;;;;;;;15.80;7.03;;;12.40;99.90;;;;;;5057972;28;20454;-80
2022/10/13 06:45:24;;;;;;;9.80;6.13;;;12.40;99.90;;;;;;5057377;28;20472;-80
2022/10/13 06:47:52;;;;;;;7.83;6.07;;;12.40;99.90;;;;;;5056448;28;20539;-79
2022/10/13 06:50:19;;;;;;;8.33;6.00;;;12.40;99.90;;;;;;5057337;28;20496;-80
2022/10/13 06:52:47;;;;;;;10.20;5.93;;;12.50;99.90;;;;;;5057574;28;20458;-79
2022/10/13 06:55:15;;;;;;;9.37;5.50;;;12.50;99.90;;;;;;5058800;28;20831;-80
2022/10/13 06:57:42;;;;;;;10.37;6.00;;;12.50;99.90;;;;;;5057819;28;20499;-79
2022/10/13 07:00:10;;;;;;;9.80;6.23;;;12.50;99.90;;;;;;5056364;28;20491;-80
2022/10/13 07:02:37;;;;;;;10.60;7.37;;;12.50;99.90;;;;;;5055467;28;20457;-82
2022/10/13 07:05:04;;;;;;;12.80;6.50;;;12.40;99.90;;;;;;5055660;28;20471;-80
2022/10/13 07:07:31;;;;;;;8.73;6.23;;;12.50;99.90;;;;;;5055848;28;20991;-79
2022/10/13 07:09:59;;;;;;;13.90;7.03;;;12.40;99.90;;;;;;5055050;28;20483;-79
2022/10/13 07:12:26;;;;;;;10.50;6.30;;;12.50;99.90;;;;;;5055435;28;20547;-79
2022/10/13 07:14:53;;;;;;;12.60;6.13;;;12.60;99.90;;;;;;5055644;28;20540;-79
2022/10/13 07:17:19;;;;;;;11.90;6.90;;;12.60;99.90;;;;;;5054913;28;20462;-81
2022/10/13 07:19:48;;;;;;;9.37;6.40;;;12.70;99.90;;;;;;5055572;28;20465;-79
2022/10/13 07:22:15;;;;;;;7.93;5.97;;;12.70;99.90;;;;;;5055563;28;20452;-79
2022/10/13 07:24:42;;;;;;;10.30;6.83;;;12.80;99.90;;;;;;5058872;28;20497;-79
2022/10/13 07:27:10;;;;;;;9.47;6.30;;;12.80;99.90;;;;;;5060293;28;20828;-78
2022/10/13 07:29:37;;;;;;;7.30;6.13;;;12.90;99.90;;;;;;5059844;28;20465;-80
2022/10/13 07:32:04;;;;;;;10.97;6.40;;;13.00;99.90;;;;;;5059261;28;20478;-80
2022/10/13 07:34:31;;;;;;;8.30;6.23;;;13.10;99.90;;;;;;5059242;28;21040;-80
2022/10/13 07:36:58;;;;;;;10.10;5.60;;;13.10;99.90;;;;;;5059603;28;21018;-79
2022/10/13 07:39:25;;;;;;;11.50;6.07;;;13.20;99.90;;;;;;5058841;28;20554;-79
2022/10/13 07:41:52;;;;;;;9.63;6.13;;;13.30;99.90;;;;;;5058822;28;20530;-79
2022/10/13 07:44:20;;;;;;;10.10;7.30;;;13.40;99.90;;;;;;5059477;28;20474;-80
2022/10/13 07:46:47;;;;;;;8.83;6.93;;;13.50;99.90;;;;;;5059511;28;20484;-80
2022/10/13 07:49:14;;;;;;;14.43;6.67;;;13.60;99.90;;;;;;5059331;28;20542;-79
2022/10/13 07:51:40;;;;;;;15.33;7.77;;;13.60;99.90;;;;;;5058700;28;20873;-79
2022/10/13 07:54:07;;;;;;;12.90;6.97;;;13.70;99.90;;;;;;5058932;28;20472;-80
2022/10/13 07:56:34;;;;;;;8.83;5.97;;;13.70;99.90;;;;;;5058296;28;20533;-79
2022/10/13 07:59:03;;;;;;;9.23;5.60;;;13.80;99.90;;;;;;5058643;28;20444;-79
2022/10/13 08:01:31;;;;;;;11.03;5.67;;;13.80;99.90;;;;;;5059241;28;20483;-80
2022/10/13 08:03:58;;;;;;;6.90;5.60;;;13.90;99.90;;;;;;5059140;28;20455;-81
2022/10/13 08:06:24;;;;;;;9.37;6.70;;;14.00;99.90;;;;;;5059933;28;20539;-80
2022/10/13 08:08:52;;;;;;;11.43;6.80;;;14.00;99.90;;;;;;5059140;28;20464;-78
2022/10/13 08:11:19;;;;;;;17.03;7.77;;;14.00;99.90;;;;;;5058636;28;20494;-79
2022/10/13 08:13:50;;;;;;;9.13;6.57;;;14.00;99.90;;;;;;5061070;28;20532;-79
2022/10/13 08:16:17;;;;;;;11.27;7.37;;;14.10;99.90;;;;;;5061183;28;20440;-79
2022/10/13 08:18:46;;;;;;;9.17;5.90;;;14.10;99.90;;;;;;5060859;28;20509;-79
2022/10/13 08:21:16;;;;;;;11.10;7.00;;;14.20;99.90;;;;;;5060003;28;20456;-79
2022/10/13 08:23:43;;;;;;;11.50;7.37;;;14.20;99.90;;;;;;5060923;28;20452;-81
2022/10/13 08:26:16;;;;;;;11.03;7.43;;;14.30;99.90;;;;;;5060468;28;20459;-80
2022/10/13 08:28:43;;;;;;;12.13;7.40;;;14.30;99.90;;;;;;5059647;28;20454;-80
2022/10/13 08:31:10;;;;;;;14.10;8.00;;;14.30;99.90;;;;;;5054281;28;20487;-80
2022/10/13 08:33:37;;;;;;;10.23;7.40;;;14.40;99.90;;;;;;5069224;28;20491;-78
2022/10/13 08:36:05;;;;;;;9.07;6.63;;;14.50;99.90;;;;;;5058627;28;20566;-80
2022/10/13 08:38:32;;;;;;;9.83;6.10;;;14.50;99.90;;;;;;5059425;28;20479;-78
2022/10/13 08:40:59;;;;;;;13.50;6.97;;;14.60;99.90;;;;;;5059199;28;20984;-80
2022/10/13 08:43:37;;;;;;;10.20;6.13;;;14.70;99.90;;;;;;5059137;28;20448;-80
2022/10/13 08:46:03;;;;;;;11.33;6.23;;;14.70;99.90;;;;;;5058493;28;20546;-79
2022/10/13 08:48:34;;;;;;;10.90;6.03;;;14.80;99.90;;;;;;5059413;28;20488;-79
2022/10/13 08:51:05;;;;;;;11.03;6.17;;;14.90;99.90;;;;;;5059551;28;20487;-80
2022/10/13 08:53:35;;;;;;;9.93;6.63;;;14.90;99.90;;;;;;5059311;28;20452;-78
2022/10/13 08:56:09;;;;;;;10.47;6.33;;;14.90;99.90;;;;;;5059928;28;20483;-79
2022/10/13 08:58:40;;;;;;;12.67;7.70;;;14.90;99.90;;;;;;5058182;28;20531;-81
2022/10/13 09:01:13;;;;;;;10.07;6.50;;;15.00;99.90;;;;;;5058978;28;20538;-78
2022/10/13 09:03:48;;;;;;;9.20;5.37;;;14.90;99.90;;;;;;5059680;28;20455;-80
2022/10/13 09:06:20;;;;;;;11.50;6.93;;;15.00;99.90;;;;;;5066764;28;20517;-79
2022/10/13 09:08:53;;;;;;;10.57;7.10;;;15.00;99.90;;;;;;5067373;28;20463;-79
2022/10/13 09:11:20;;;;;;;18.03;7.90;;;15.00;99.90;;;;;;5066823;28;20487;-79
2022/10/13 09:13:47;;;;;;;13.00;7.07;;;15.00;99.90;;;;;;5067810;28;20516;-79
2022/10/13 09:16:14;;;;;;;12.93;7.50;;;15.00;99.90;;;;;;5065810;28;20511;-79
2022/10/13 09:18:41;;;;;;;10.40;6.63;;;15.10;99.90;;;;;;5066610;28;20513;-80
2022/10/13 09:21:26;;;;;;;11.70;6.53;;;15.20;99.90;;;;;;5066713;28;20448;-79
2022/10/13 09:24:06;;;;;;;11.93;6.63;;;15.30;99.90;;;;;;5066395;28;20539;-78
2022/10/13 09:26:37;;;;;;;11.77;6.57;;;15.40;99.90;;;;;;5065160;28;20502;-80
2022/10/13 09:29:09;;;;;;;10.70;7.40;;;15.60;99.90;;;;;;5066841;28;20511;-80
2022/10/13 09:31:36;;;;;;;16.53;7.87;;;15.70;99.90;;;;;;5071603;28;20545;-80
2022/10/13 09:34:13;;;;;;;10.47;6.40;;;15.80;99.90;;;;;;5071254;28;20498;-80
2022/10/13 09:36:55;;;;;;;11.00;6.53;;;15.80;99.90;;;;;;5072916;28;20456;-78
2022/10/13 09:39:24;;;;;;;10.70;6.27;;;16.10;99.90;;;;;;5066193;28;20976;-79
2022/10/13 09:41:51;;;;;;;9.13;6.70;;;16.30;99.90;;;;;;5062614;28;20440;-78
2022/10/13 09:44:31;;;;;;;18.50;9.13;;;16.30;99.90;;;;;;5060533;28;20886;-79
2022/10/13 09:47:00;;;;;;;11.43;6.80;;;16.30;99.90;;;;;;5061593;28;20445;-81
2022/10/13 09:49:36;;;;;;;15.43;6.70;;;16.50;99.90;;;;;;5062092;28;20454;-78
2022/10/13 09:52:05;;;;;;;11.33;7.10;;;16.60;99.90;;;;;;5061293;28;21050;-79
2022/10/13 09:54:44;;;;;;;11.73;7.17;;;16.60;99.90;;;;;;5059893;28;20495;-80
2022/10/13 09:57:23;;;;;;;12.30;7.13;;;16.60;99.90;;;;;;5059439;28;20500;-79
2022/10/13 09:59:52;;;;;;;9.63;6.97;;;16.60;99.90;;;;;;5055763;28;20535;-77
2022/10/13 10:02:26;;;;;;;10.60;5.20;;;16.80;99.90;;;;;;5057455;28;20452;-78
2022/10/13 10:04:56;;;;;;;11.27;6.80;;;17.00;99.90;;;;;;5057606;28;20474;-81
2022/10/13 10:07:28;;;;;;;11.20;7.13;;;17.10;99.90;;;;;;5056406;28;20528;-79
2022/10/13 10:10:03;;;;;;;8.20;5.53;;;17.10;99.90;;;;;;5056097;28;20448;-80
2022/10/13 10:12:35;;;;;;;8.13;6.03;;;17.10;99.90;;;;;;5058195;28;20478;-79
2022/10/13 10:15:02;;;;;;;10.83;6.60;;;17.20;99.90;;;;;;5057398;28;20505;-79
2022/10/13 10:17:36;;;;;;;9.53;5.60;;;17.20;99.90;;;;;;5056150;28;20466;-79
2022/10/13 10:20:23;;;;;;;12.53;5.37;;;17.30;99.90;;;;;;5059199;28;20518;-80
2022/10/13 10:22:56;;;;;;;11.70;6.13;;;17.50;99.90;;;;;;5058381;28;20479;-80
2022/10/13 10:25:33;;;;;;;8.20;5.90;;;17.70;99.90;;;;;;5060193;28;20479;-81
2022/10/13 10:28:23;;;;;;;9.33;5.43;;;17.80;99.90;;;;;;5059098;28;20697;-78
2022/10/13 10:30:56;;;;;;;8.80;6.00;;;17.80;99.90;;;;;;5061159;28;20455;-81
2022/10/13 10:33:45;;;;;;;15.43;7.30;;;17.90;99.90;;;;;;5060866;28;20515;-78
2022/10/13 10:36:16;;;;;;;8.13;5.70;;;17.90;99.90;;;;;;5059175;28;20537;-81
2022/10/13 10:38:47;;;;;;;8.83;5.73;;;18.30;99.90;;;;;;5060097;28;20464;-81
2022/10/13 10:41:32;;;;;;;10.77;5.90;;;18.70;99.90;;;;;;5060268;28;20447;-82
2022/10/13 10:44:02;;;;;;;11.80;5.60;;;18.90;99.90;;;;;;5059412;28;20894;-79
2022/10/13 10:46:32;;;;;;;10.90;5.10;;;19.00;99.90;;;;;;5061372;28;20456;-81
2022/10/13 10:49:01;;;;;;;9.47;6.00;;;19.40;99.90;;;;;;5061083;28;20450;-80
2022/10/13 10:51:32;;;;;;;9.50;5.50;;;19.50;99.90;;;;;;5062004;28;20957;-80
2022/10/13 10:54:09;;;;;;;7.87;4.73;;;19.40;99.90;;;;;;5060656;28;20454;-80
2022/10/13 10:56:45;;;;;;;7.70;5.47;;;19.60;99.90;;;;;;5060044;28;20458;-81
2022/10/13 10:59:26;;;;;;;6.97;4.73;;;19.70;99.90;;;;;;5063129;28;20997;-81
2022/10/13 11:02:10;;;;;;;14.53;5.70;;;19.50;99.90;;;;;;5063098;28;20460;-79
2022/10/13 11:04:42;;;;;;;10.40;5.77;;;19.60;99.90;;;;;;5062881;28;21063;-81
2022/10/13 11:07:13;;;;;;;7.73;4.17;;;19.80;99.90;;;;;;5065179;28;20974;-82
2022/10/13 11:10:21;;;;;;;5.50;3.83;;;20.50;99.90;;;;;;5054246;28;20537;-80
2022/10/13 11:13:25;;;;;;;9.83;4.63;;;20.90;99.90;;;;;;5064328;28;20491;-80
2022/10/13 11:15:52;;;;;;;9.57;5.57;;;21.10;99.90;;;;;;5064312;28;20514;-79
2022/10/13 11:18:57;;;;;;;9.57;6.23;;;20.90;99.90;;;;;;5064087;28;20963;-80
2022/10/13 11:21:24;;;;;;;7.53;4.50;;;20.90;99.90;;;;;;5062929;28;20450;-80
2022/10/13 11:23:54;;;;;;;9.03;4.50;;;21.20;99.90;;;;;;5064493;28;20455;-80
2022/10/13 11:26:40;;;;;;;14.00;5.17;;;21.40;99.90;;;;;;5065044;28;20471;-80
2022/10/13 11:29:19;;;;;;;5.93;4.13;;;21.70;99.90;;;;;;5064733;28;20475;-80
2022/10/13 11:31:52;;;;;;;8.90;4.67;;;21.60;99.90;;;;;;5063246;28;20549;-78
2022/10/13 11:34:31;;;;;;;11.57;6.47;;;21.20;99.90;;;;;;5062026;28;20490;-80
2022/10/13 11:37:00;;;;;;;11.10;4.83;;;20.50;99.90;;;;;;5061290;28;20988;-80
2022/10/13 11:40:14;;;;;;;11.13;5.77;;;20.10;99.90;;;;;;5062284;28;20481;-80
2022/10/13 11:42:59;;;;;;;6.93;5.27;;;19.50;99.90;;;;;;5061602;28;20436;-80
2022/10/13 11:45:43;;;;;;;10.33;6.30;;;19.40;99.90;;;;;;5061462;28;20473;-78
2022/10/13 11:48:39;;;;;;;8.73;4.97;;;19.20;99.90;;;;;;5059102;28;20434;-79
2022/10/13 11:51:19;;;;;;;10.07;4.70;;;19.00;99.90;;;;;;5062116;28;20539;-81
2022/10/13 11:53:55;;;;;;;10.43;5.70;;;19.00;99.90;;;;;;5062286;28;20482;-80
2022/10/13 11:56:31;;;;;;;11.00;5.80;;;18.70;99.90;;;;;;5063624;28;20495;-81
2022/10/13 11:58:58;;;;;;;7.03;4.53;;;18.60;99.90;;;;;;5050319;28;20449;-81
2022/10/13 12:01:26;;;;;;;7.33;4.10;;;18.60;99.90;;;;;;5063347;28;20561;-82
2022/10/13 12:03:53;;;;;;;10.37;5.30;;;18.50;99.90;;;;;;5060505;28;20449;-84
2022/10/13 12:06:32;;;;;;;8.00;5.10;;;18.20;99.90;;;;;;5059824;28;20923;-80
2022/10/13 12:09:02;;;;;;;6.83;5.03;;;18.00;99.90;;;;;;5058769;28;20519;-79
2022/10/13 12:11:31;;;;;;;8.17;4.83;;;17.90;99.90;;;;;;5058285;28;20495;-78
2022/10/13 12:13:59;;;;;;;9.07;5.67;;;17.80;99.90;;;;;;5058929;28;20451;-80
2022/10/13 12:16:31;;;;;;;17.40;5.37;;;17.80;99.90;;;;;;5059475;28;20488;-82
2022/10/13 12:19:09;;;;;;;7.80;5.07;;;17.70;99.90;;;;;;5060659;28;20453;-81
2022/10/13 12:21:52;;;;;;;9.47;3.93;;;17.60;99.90;;;;;;5043761;28;20448;-82
2022/10/13 12:24:22;;;;;;;16.33;5.73;;;17.50;99.90;;;;;;5062086;28;20490;-81
2022/10/13 12:26:49;;;;;;;10.47;4.67;;;17.40;99.90;;;;;;5059913;28;20448;-80
2022/10/13 12:29:17;;;;;;;6.37;4.97;;;17.10;99.90;;;;;;5058808;28;20475;-78
2022/10/13 12:31:50;;;;;;;11.13;5.87;;;17.20;99.90;;;;;;5061117;28;20482;-81
2022/10/13 12:34:21;;;;;;;8.33;4.63;;;17.00;99.90;;;;;;5065884;28;20491;-80
2022/10/13 12:36:55;;;;;;;10.33;5.80;;;16.90;99.90;;;;;;5067477;28;20441;-80
2022/10/13 12:39:23;;;;;;;8.77;5.40;;;16.90;99.90;;;;;;5063001;28;20468;-78
2022/10/13 12:41:51;;;;;;;12.17;5.30;;;16.80;99.90;;;;;;5064410;28;20450;-82
2022/10/13 12:44:23;;;;;;;9.00;5.57;;;16.80;99.90;;;;;;5065901;28;20475;-79
2022/10/13 12:46:54;;;;;;;7.63;4.93;;;16.70;99.90;;;;;;5063794;28;20515;-79
2022/10/13 12:49:25;;;;;;;9.33;5.00;;;16.80;99.90;;;;;;5059520;28;20543;-81
2022/10/13 12:51:56;;;;;;;7.70;5.43;;;16.80;99.90;;;;;;5055954;28;20490;-77
2022/10/13 12:54:26;;;;;;;10.77;5.63;;;16.60;99.90;;;;;;5052907;28;20480;-78
2022/10/13 12:56:56;;;;;;;11.77;7.20;;;16.50;99.90;;;;;;5054519;28;20538;-77